sensor_id;sensor_type;location;lat;lon;timestamp;pressure;altitude;pressure_sealevel;temperature;humidity
12879;BME280;20617;49.476;10.986;2023-11-19T00:00:54;98323.19;;;7.30;100.00
12879;BME280;20617;49.476;10.986;2023-11-19T00:02:59;98312.91;;;7.26;100.00
12879;BME280;20617;49.476;10.986;2023-11-19T00:05:05;98309.41;;;7.29;100.00
12879;BME280;20617;49.476;10.986;2023-11-19T00:07:11;98312.13;;;7.24;100.00
12879;BME280;20617;49.476;10.986;2023-11-19T00:09:17;98305.97;;;7.29;100.00
12879;BME280;20617;49.476;10.986;2023-11-19T00:11:22;98298.00;;;7.36;100.00
12879;BME280;20617;49.476;10.986;2023-11-19T00:13:25;98290.13;;;7.39;100.00
12879;BME280;20617;49.476;10.986;2023-11-19T00:15:30;98292.72;;;7.39;100.00
12879;BME280;20617;49.476;10.986;2023-11-19T00:17:37;98297.81;;;7.42;100.00
12879;BME280;20617;49.476;10.986;2023-11-19T00:19:41;98296.00;;;7.44;100.00
12879;BME280;20617;49.476;10.986;2023-11-19T00:21:46;98295.22;;;7.42;100.00
12879;BME280;20617;49.476;10.986;2023-11-19T00:23:51;98290.13;;;7.39;100.00
12879;BME280;20617;49.476;10.986;2023-11-19T00:25:56;98291.91;;;7.37;100.00
12879;BME280;20617;49.476;10.986;2023-11-19T00:28:01;98286.69;;;7.39;100.00
12879;BME280;20617;49.476;10.986;2023-11-19T00:30:07;98296.91;;;7.43;100.00
12879;BME280;20617;49.476;10.986;2023-11-19T00:32:12;98283.03;;;7.46;100.00
12879;BME280;20617;49.476;10.986;2023-11-19T00:34:21;98271.75;;;7.47;100.00
12879;BME280;20617;49.476;10.986;2023-11-19T00:36:26;98269.22;;;7.45;100.00
12879;BME280;20617;49.476;10.986;2023-11-19T00:38:31;98267.56;;;7.43;100.00
12879;BME280;20617;49.476;10.986;2023-11-19T00:40:36;98260.63;;;7.43;100.00
12879;BME280;20617;49.476;10.986;2023-11-19T00:42:42;98265.88;;;7.42;100.00
12879;BME280;20617;49.476;10.986;2023-11-19T00:44:45;98259.00;;;7.41;100.00
12879;BME280;20617;49.476;10.986;2023-11-19T00:46:52;98253.81;;;7.41;100.00
12879;BME280;20617;49.476;10.986;2023-11-19T00:48:58;98247.75;;;7.42;100.00
12879;BME280;20617;49.476;10.986;2023-11-19T00:51:06;98240.75;;;7.45;100.00
12879;BME280;20617;49.476;10.986;2023-11-19T00:53:11;98242.50;;;7.43;100.00
12879;BME280;20617;49.476;10.986;2023-11-19T00:55:17;98240.69;;;7.47;100.00
12879;BME280;20617;49.476;10.986;2023-11-19T00:57:22;98235.50;;;7.47;100.00
12879;BME280;20617;49.476;10.986;2023-11-19T00:59:27;98236.44;;;7.44;100.00
12879;BME280;20617;49.476;10.986;2023-11-19T01:01:32;98229.63;;;7.42;100.00
12879;BME280;20617;49.476;10.986;2023-11-19T01:03:34;98228.53;;;7.49;100.00
12879;BME280;20617;49.476;10.986;2023-11-19T01:05:40;98221.59;;;7.49;100.00
12879;BME280;20617;49.476;10.986;2023-11-19T01:07:49;98236.03;;;7.58;100.00
12879;BME280;20617;49.476;10.986;2023-11-19T01:09:56;98233.41;;;7.60;100.00
12879;BME280;20617;49.476;10.986;2023-11-19T01:12:02;98230.63;;;7.66;100.00
12879;BME280;20617;49.476;10.986;2023-11-19T01:14:04;98235.09;;;7.61;100.00
12879;BME280;20617;49.476;10.986;2023-11-19T01:16:10;98240.13;;;7.65;100.00
12879;BME280;20617;49.476;10.986;2023-11-19T01:18:15;98241.81;;;7.66;100.00
12879;BME280;20617;49.476;10.986;2023-11-19T01:20:21;98244.59;;;7.60;100.00
12879;BME280;20617;49.476;10.986;2023-11-19T01:22:26;98234.09;;;7.65;100.00
12879;BME280;20617;49.476;10.986;2023-11-19T01:24:33;98231.47;;;7.66;100.00
12879;BME280;20617;49.476;10.986;2023-11-19T01:26:36;98234.09;;;7.65;100.00
12879;BME280;20617;49.476;10.986;2023-11-19T01:28:47;98232.41;;;7.64;100.00
12879;BME280;20617;49.476;10.986;2023-11-19T01:30:55;98234.16;;;7.63;100.00
12879;BME280;20617;49.476;10.986;2023-11-19T01:33:00;98226.50;;;7.59;100.00
12879;BME280;20617;49.476;10.986;2023-11-19T01:35:06;98237.91;;;7.53;100.00
12879;BME280;20617;49.476;10.986;2023-11-19T01:37:10;98231.75;;;7.57;100.00
12879;BME280;20617;49.476;10.986;2023-11-19T01:39:16;98232.63;;;7.56;100.00
12879;BME280;20617;49.476;10.986;2023-11-19T01:41:25;98226.50;;;7.59;100.00
12879;BME280;20617;49.476;10.986;2023-11-19T01:43:34;98213.44;;;7.63;100.00
12879;BME280;20617;49.476;10.986;2023-11-19T01:45:40;98210.00;;;7.63;100.00
12879;BME280;20617;49.476;10.986;2023-11-19T01:47:42;98205.69;;;7.62;100.00
12879;BME280;20617;49.476;10.986;2023-11-19T01:49:47;98201.41;;;7.61;100.00
12879;BME280;20617;49.476;10.986;2023-11-19T01:51:53;98185.97;;;7.58;100.00
12879;BME280;20617;49.476;10.986;2023-11-19T01:53:59;98172.19;;;7.56;100.00
12879;BME280;20617;49.476;10.986;2023-11-19T01:56:05;98160.16;;;7.55;100.00
12879;BME280;20617;49.476;10.986;2023-11-19T01:58:14;98160.28;;;7.50;100.00
12879;BME280;20617;49.476;10.986;2023-11-19T02:00:16;98159.34;;;7.53;100.00
12879;BME280;20617;49.476;10.986;2023-11-19T02:02:23;98166.25;;;7.54;100.00
12879;BME280;20617;49.476;10.986;2023-11-19T02:04:28;98160.03;;;7.59;100.00
12879;BME280;20617;49.476;10.986;2023-11-19T02:06:34;98167.63;;;7.64;100.00
12879;BME280;20617;49.476;10.986;2023-11-19T02:08:43;98157.88;;;7.72;100.00
12879;BME280;20617;49.476;10.986;2023-11-19T02:10:48;98159.63;;;7.71;100.00
12879;BME280;20617;49.476;10.986;2023-11-19T02:12:52;98156.97;;;7.73;100.00
12879;BME280;20617;49.476;10.986;2023-11-19T02:15:11;98152.72;;;7.70;100.00
12879;BME280;20617;49.476;10.986;2023-11-19T02:17:25;98162.13;;;7.75;100.00
12879;BME280;20617;49.476;10.986;2023-11-19T02:19:33;98163.06;;;7.72;100.00
12879;BME280;20617;49.476;10.986;2023-11-19T02:21:40;98162.06;;;7.76;100.00
12879;BME280;20617;49.476;10.986;2023-11-19T02:23:45;98162.00;;;7.78;100.00
12879;BME280;20617;49.476;10.986;2023-11-19T02:26:00;98160.16;;;7.81;100.00
12879;BME280;20617;49.476;10.986;2023-11-19T02:28:07;98160.91;;;7.85;100.00
12879;BME280;20617;49.476;10.986;2023-11-19T02:30:14;98153.00;;;7.89;100.00
12879;BME280;20617;49.476;10.986;2023-11-19T02:32:19;98154.56;;;7.93;100.00
12879;BME280;20617;49.476;10.986;2023-11-19T02:34:22;98150.19;;;7.96;100.00
12879;BME280;20617;49.476;10.986;2023-11-19T02:36:28;98149.28;;;7.97;100.00
12879;BME280;20617;49.476;10.986;2023-11-19T02:38:34;98151.03;;;7.96;100.00
12879;BME280;20617;49.476;10.986;2023-11-19T02:40:39;98150.06;;;8.00;100.00
12879;BME280;20617;49.476;10.986;2023-11-19T02:42:44;98154.09;;;8.09;100.00
12879;BME280;20617;49.476;10.986;2023-11-19T02:44:54;98151.44;;;8.10;100.00
12879;BME280;20617;49.476;10.986;2023-11-19T02:46:59;98142.69;;;8.13;100.00
12879;BME280;20617;49.476;10.986;2023-11-19T02:49:05;98135.84;;;8.12;100.00
12879;BME280;20617;49.476;10.986;2023-11-19T02:51:12;98148.09;;;8.07;100.00
12879;BME280;20617;49.476;10.986;2023-11-19T02:53:17;98141.13;;;8.09;100.00
12879;BME280;20617;49.476;10.986;2023-11-19T02:55:20;98133.25;;;8.12;100.00
12879;BME280;20617;49.476;10.986;2023-11-19T02:57:30;98122.78;;;8.13;100.00
12879;BME280;20617;49.476;10.986;2023-11-19T02:59:40;98124.50;;;8.14;100.00
12879;BME280;20617;49.476;10.986;2023-11-19T03:01:48;98127.09;;;8.14;100.00
12879;BME280;20617;49.476;10.986;2023-11-19T03:03:54;98124.44;;;8.16;100.00
12879;BME280;20617;49.476;10.986;2023-11-19T03:06:00;98127.88;;;8.16;100.00
12879;BME280;20617;49.476;10.986;2023-11-19T03:08:06;98126.13;;;8.17;100.00
12879;BME280;20617;49.476;10.986;2023-11-19T03:10:09;98127.78;;;8.20;100.00
12879;BME280;20617;49.476;10.986;2023-11-19T03:12:15;98132.19;;;8.18;100.00
12879;BME280;20617;49.476;10.986;2023-11-19T03:14:18;98132.91;;;8.21;100.00
12879;BME280;20617;49.476;10.986;2023-11-19T03:16:25;98123.34;;;8.23;100.00
12879;BME280;20617;49.476;10.986;2023-11-19T03:18:30;98111.16;;;8.25;100.00
12879;BME280;20617;49.476;10.986;2023-11-19T03:20:36;98106.91;;;8.23;100.00
12879;BME280;20617;49.476;10.986;2023-11-19T03:22:38;98102.69;;;8.20;100.00
12879;BME280;20617;49.476;10.986;2023-11-19T03:24:44;98092.31;;;8.20;100.00
12879;BME280;20617;49.476;10.986;2023-11-19T03:26:48;98099.09;;;8.24;100.00
12879;BME280;20617;49.476;10.986;2023-11-19T03:28:54;98098.25;;;8.24;100.00
12879;BME280;20617;49.476;10.986;2023-11-19T03:30:56;98104.31;;;8.23;100.00
12879;BME280;20617;49.476;10.986;2023-11-19T03:33:02;98099.91;;;8.26;100.00
12879;BME280;20617;49.476;10.986;2023-11-19T03:35:11;98069.63;;;8.27;100.00
12879;BME280;20617;49.476;10.986;2023-11-19T03:37:16;98054.06;;;8.27;100.00
12879;BME280;20617;49.476;10.986;2023-11-19T03:39:21;98040.53;;;8.19;100.00
12879;BME280;20617;49.476;10.986;2023-11-19T03:41:26;98041.63;;;8.11;100.00
12879;BME280;20617;49.476;10.986;2023-11-19T03:43:43;98024.47;;;8.09;100.00
12879;BME280;20617;49.476;10.986;2023-11-19T03:45:47;98008.25;;;8.02;100.00
12879;BME280;20617;49.476;10.986;2023-11-19T03:47:53;97988.19;;;7.84;100.00
12879;BME280;20617;49.476;10.986;2023-11-19T03:49:58;97983.22;;;7.78;100.00
12879;BME280;20617;49.476;10.986;2023-11-19T03:52:03;97986.75;;;7.75;100.00
12879;BME280;20617;49.476;10.986;2023-11-19T03:54:20;97993.63;;;7.76;100.00
12879;BME280;20617;49.476;10.986;2023-11-19T03:56:26;98004.00;;;7.76;100.00
12879;BME280;20617;49.476;10.986;2023-11-19T03:58:33;98016.72;;;7.82;100.00
12879;BME280;20617;49.476;10.986;2023-11-19T04:00:38;98011.97;;;7.95;100.00
12879;BME280;20617;49.476;10.986;2023-11-19T04:02:43;98011.91;;;7.97;100.00
12879;BME280;20617;49.476;10.986;2023-11-19T04:04:49;98024.66;;;8.03;100.00
12879;BME280;20617;49.476;10.986;2023-11-19T04:06:51;98014.19;;;8.06;100.00
12879;BME280;20617;49.476;10.986;2023-11-19T04:08:59;98014.09;;;8.09;100.00
12879;BME280;20617;49.476;10.986;2023-11-19T04:11:04;98019.28;;;8.09;100.00
12879;BME280;20617;49.476;10.986;2023-11-19T04:13:07;98035.56;;;8.12;100.00
12879;BME280;20617;49.476;10.986;2023-11-19T04:15:15;98037.13;;;8.16;100.00
12879;BME280;20617;49.476;10.986;2023-11-19T04:17:20;98041.38;;;8.19;100.00
12879;BME280;20617;49.476;10.986;2023-11-19T04:19:22;98038.63;;;8.24;100.00
12879;BME280;20617;49.476;10.986;2023-11-19T04:21:28;98040.19;;;8.28;100.00
12879;BME280;20617;49.476;10.986;2023-11-19T04:23:33;98040.19;;;8.28;100.00
12879;BME280;20617;49.476;10.986;2023-11-19T04:25:41;98031.44;;;8.30;100.00
12879;BME280;20617;49.476;10.986;2023-11-19T04:27:46;98043.38;;;8.34;100.00
12879;BME280;20617;49.476;10.986;2023-11-19T04:29:51;98033.03;;;8.34;100.00
12879;BME280;20617;49.476;10.986;2023-11-19T04:31:58;98032.06;;;8.38;100.00
12879;BME280;20617;49.476;10.986;2023-11-19T04:34:03;98028.38;;;8.44;100.00
12879;BME280;20617;49.476;10.986;2023-11-19T04:36:06;98031.81;;;8.45;100.00
12879;BME280;20617;49.476;10.986;2023-11-19T04:38:12;98038.56;;;8.49;100.00
12879;BME280;20617;49.476;10.986;2023-11-19T04:40:17;98039.22;;;8.55;100.00
12879;BME280;20617;49.476;10.986;2023-11-19T04:42:27;98037.28;;;8.60;100.00
12879;BME280;20617;49.476;10.986;2023-11-19T04:44:34;98037.16;;;8.64;100.00
12879;BME280;20617;49.476;10.986;2023-11-19T04:46:39;98033.59;;;8.66;100.00
12879;BME280;20617;49.476;10.986;2023-11-19T04:48:45;98033.47;;;8.69;100.00
12879;BME280;20617;49.476;10.986;2023-11-19T04:50:50;98028.25;;;8.71;100.00
12879;BME280;20617;49.476;10.986;2023-11-19T04:52:56;98026.56;;;8.70;100.00
12879;BME280;20617;49.476;10.986;2023-11-19T04:55:02;98022.97;;;8.72;100.00
12879;BME280;20617;49.476;10.986;2023-11-19T04:57:07;98027.28;;;8.73;100.00
12879;BME280;20617;49.476;10.986;2023-11-19T04:59:14;98027.22;;;8.75;100.00
12879;BME280;20617;49.476;10.986;2023-11-19T05:01:19;98019.38;;;8.76;100.00
12879;BME280;20617;49.476;10.986;2023-11-19T05:03:24;98021.13;;;8.76;100.00
12879;BME280;20617;49.476;10.986;2023-11-19T05:05:29;98028.69;;;8.82;100.00
12879;BME280;20617;49.476;10.986;2023-11-19T05:07:34;98030.44;;;8.81;100.00
12879;BME280;20617;49.476;10.986;2023-11-19T05:09:44;98018.31;;;8.82;100.00
12879;BME280;20617;49.476;10.986;2023-11-19T05:11:49;98025.19;;;8.83;100.00
12879;BME280;20617;49.476;10.986;2023-11-19T05:13:54;98019.94;;;8.84;100.00
12879;BME280;20617;49.476;10.986;2023-11-19T05:16:02;98015.50;;;8.87;100.00
12879;BME280;20617;49.476;10.986;2023-11-19T05:18:07;98012.06;;;8.86;100.00
12879;BME280;20617;49.476;10.986;2023-11-19T05:20:12;98010.28;;;8.88;100.00
12879;BME280;20617;49.476;10.986;2023-11-19T05:22:18;98004.88;;;8.93;100.00
12879;BME280;20617;49.476;10.986;2023-11-19T05:24:23;98000.50;;;8.95;100.00
12879;BME280;20617;49.476;10.986;2023-11-19T05:26:28;98008.28;;;8.95;100.00
12879;BME280;20617;49.476;10.986;2023-11-19T05:28:34;97999.56;;;8.96;100.00
12879;BME280;20617;49.476;10.986;2023-11-19T05:30:39;97999.56;;;8.96;100.00
12879;BME280;20617;49.476;10.986;2023-11-19T05:32:47;97995.97;;;9.00;100.00
12879;BME280;20617;49.476;10.986;2023-11-19T05:34:49;97999.28;;;9.03;100.00
12879;BME280;20617;49.476;10.986;2023-11-19T05:36:54;97995.16;;;8.98;100.00
12879;BME280;20617;49.476;10.986;2023-11-19T05:38:59;97990.78;;;9.00;100.00
12879;BME280;20617;49.476;10.986;2023-11-19T05:41:04;97993.66;;;8.92;100.00
12879;BME280;20617;49.476;10.986;2023-11-19T05:43:10;98007.44;;;8.94;100.00
12879;BME280;20617;49.476;10.986;2023-11-19T05:45:16;98001.19;;;8.98;100.00
12879;BME280;20617;49.476;10.986;2023-11-19T05:47:21;97998.44;;;9.03;100.00
12879;BME280;20617;49.476;10.986;2023-11-19T05:49:29;97989.59;;;9.07;100.00
12879;BME280;20617;49.476;10.986;2023-11-19T05:51:36;97985.28;;;9.07;100.00
12879;BME280;20617;49.476;10.986;2023-11-19T05:53:41;97989.47;;;9.10;100.00
12879;BME280;20617;49.476;10.986;2023-11-19T05:55:48;97987.69;;;9.12;100.00
12879;BME280;20617;49.476;10.986;2023-11-19T05:57:57;97989.13;;;9.19;100.00
12879;BME280;20617;49.476;10.986;2023-11-19T06:00:04;97985.50;;;9.23;100.00
12879;BME280;20617;49.476;10.986;2023-11-19T06:02:12;97980.97;;;9.28;100.00
12879;BME280;20617;49.476;10.986;2023-11-19T06:04:17;97987.69;;;9.33;100.00
12879;BME280;20617;49.476;10.986;2023-11-19T06:06:25;97984.09;;;9.37;100.00
12879;BME280;20617;49.476;10.986;2023-11-19T06:08:30;97990.84;;;9.41;100.00
12879;BME280;20617;49.476;10.986;2023-11-19T06:10:33;97992.47;;;9.43;100.00
12879;BME280;20617;49.476;10.986;2023-11-19T06:12:39;97992.34;;;9.46;100.00
12879;BME280;20617;49.476;10.986;2023-11-19T06:14:44;97990.44;;;9.50;100.00
12879;BME280;20617;49.476;10.986;2023-11-19T06:16:46;97991.22;;;9.52;100.00
12879;BME280;20617;49.476;10.986;2023-11-19T06:18:51;97993.03;;;9.50;100.00
12879;BME280;20617;49.476;10.986;2023-11-19T06:20:57;97997.28;;;9.52;100.00
12879;BME280;20617;49.476;10.986;2023-11-19T06:23:04;97985.25;;;9.50;100.00
12879;BME280;20617;49.476;10.986;2023-11-19T06:25:09;97992.91;;;9.53;100.00
12879;BME280;20617;49.476;10.986;2023-11-19T06:27:13;97997.97;;;9.56;100.00
12879;BME280;20617;49.476;10.986;2023-11-19T06:29:18;97995.19;;;9.61;100.00
12879;BME280;20617;49.476;10.986;2023-11-19T06:31:23;97998.44;;;9.66;100.00
12879;BME280;20617;49.476;10.986;2023-11-19T06:33:28;97996.56;;;9.69;100.00
12879;BME280;20617;49.476;10.986;2023-11-19T06:35:33;97984.31;;;9.71;100.00
12879;BME280;20617;49.476;10.986;2023-11-19T06:37:41;97994.53;;;9.76;100.00
12879;BME280;20617;49.476;10.986;2023-11-19T06:39:46;97996.03;;;9.82;100.00
12879;BME280;20617;49.476;10.986;2023-11-19T06:41:52;97994.22;;;9.84;100.00
12879;BME280;20617;49.476;10.986;2023-11-19T06:43:57;97995.75;;;9.88;100.00
12879;BME280;20617;49.476;10.986;2023-11-19T06:46:05;97997.38;;;9.90;100.00
12879;BME280;20617;49.476;10.986;2023-11-19T06:48:20;98000.78;;;9.92;100.00
12879;BME280;20617;49.476;10.986;2023-11-19T06:50:25;97998.09;;;9.94;100.00
12879;BME280;20617;49.476;10.986;2023-11-19T06:52:31;98001.47;;;9.96;100.00
12879;BME280;20617;49.476;10.986;2023-11-19T06:54:38;97997.06;;;9.98;100.00
12879;BME280;20617;49.476;10.986;2023-11-19T06:56:45;98001.06;;;10.05;100.00
12879;BME280;20617;49.476;10.986;2023-11-19T06:58:51;97999.25;;;10.07;100.00
12879;BME280;20617;49.476;10.986;2023-11-19T07:00:57;98013.81;;;10.11;100.00
12879;BME280;20617;49.476;10.986;2023-11-19T07:03:02;98023.38;;;10.11;100.00
12879;BME280;20617;49.476;10.986;2023-11-19T07:05:10;98025.00;;;10.13;100.00
12879;BME280;20617;49.476;10.986;2023-11-19T07:07:16;98025.13;;;10.10;100.00
12879;BME280;20617;49.476;10.986;2023-11-19T07:09:23;98020.44;;;10.18;100.00
12879;BME280;20617;49.476;10.986;2023-11-19T07:11:27;98028.09;;;10.22;100.00
12879;BME280;20617;49.476;10.986;2023-11-19T07:13:34;98027.13;;;10.24;100.00
12879;BME280;20617;49.476;10.986;2023-11-19T07:15:39;98038.28;;;10.26;100.00
12879;BME280;20617;49.476;10.986;2023-11-19T07:17:44;98033.31;;;10.22;100.00
12879;BME280;20617;49.476;10.986;2023-11-19T07:20:04;98034.84;;;10.26;100.00
12879;BME280;20617;49.476;10.986;2023-11-19T07:22:10;98046.56;;;10.36;100.00
12879;BME280;20617;49.476;10.986;2023-11-19T07:24:15;98056.19;;;10.34;100.00
12879;BME280;20617;49.476;10.986;2023-11-19T07:26:20;98056.75;;;10.40;100.00
12879;BME280;20617;49.476;10.986;2023-11-19T07:28:25;98057.75;;;10.38;100.00
12879;BME280;20617;49.476;10.986;2023-11-19T07:30:33;98064.28;;;10.47;100.00
12879;BME280;20617;49.476;10.986;2023-11-19T07:32:38;98060.53;;;10.54;100.00
12879;BME280;20617;49.476;10.986;2023-11-19T07:34:43;98070.09;;;10.53;100.00
12879;BME280;20617;49.476;10.986;2023-11-19T07:36:51;98065.34;;;10.61;100.00
12879;BME280;20617;49.476;10.986;2023-11-19T07:38:59;98058.97;;;10.69;100.00
12879;BME280;20617;49.476;10.986;2023-11-19T07:41:01;98067.19;;;10.78;100.00
12879;BME280;20617;49.476;10.986;2023-11-19T07:43:07;98073.00;;;10.85;100.00
12879;BME280;20617;49.476;10.986;2023-11-19T07:45:12;98076.16;;;10.92;100.00
12879;BME280;20617;49.476;10.986;2023-11-19T07:47:20;98069.38;;;10.87;100.00
12879;BME280;20617;49.476;10.986;2023-11-19T07:49:25;98071.00;;;10.90;100.00
12879;BME280;20617;49.476;10.986;2023-11-19T07:51:31;98073.97;;;10.82;100.00
12879;BME280;20617;49.476;10.986;2023-11-19T07:53:35;98077.56;;;10.80;100.00
12879;BME280;20617;49.476;10.986;2023-11-19T07:55:42;98077.41;;;10.83;100.00
12879;BME280;20617;49.476;10.986;2023-11-19T07:57:48;98082.69;;;10.81;100.00
12879;BME280;20617;49.476;10.986;2023-11-19T07:59:53;98080.72;;;10.86;100.00
12879;BME280;20617;49.476;10.986;2023-11-19T08:01:58;98083.81;;;10.95;100.00
12879;BME280;20617;49.476;10.986;2023-11-19T08:04:06;98085.16;;;11.03;100.00
12879;BME280;20617;49.476;10.986;2023-11-19T08:06:12;98086.91;;;11.03;100.00
12879;BME280;20617;49.476;10.986;2023-11-19T08:08:18;98088.59;;;11.04;100.00
12879;BME280;20617;49.476;10.986;2023-11-19T08:10:20;98090.41;;;11.02;100.00
12879;BME280;20617;49.476;10.986;2023-11-19T08:12:25;98098.22;;;11.02;100.00
12879;BME280;20617;49.476;10.986;2023-11-19T08:14:30;98086.00;;;11.04;100.00
12879;BME280;20617;49.476;10.986;2023-11-19T08:16:33;98084.84;;;11.09;100.00
12879;BME280;20617;49.476;10.986;2023-11-19T08:18:41;98094.22;;;11.14;100.00
12879;BME280;20617;49.476;10.986;2023-11-19T08:20:49;98095.09;;;11.14;100.00
12879;BME280;20617;49.476;10.986;2023-11-19T08:22:55;98089.94;;;11.13;100.00
12879;BME280;20617;49.476;10.986;2023-11-19T08:25:00;98083.03;;;11.12;100.00
12879;BME280;20617;49.476;10.986;2023-11-19T08:27:06;98078.22;;;11.21;100.00
12879;BME280;20617;49.476;10.986;2023-11-19T08:29:11;98088.72;;;11.20;100.00
12879;BME280;20617;49.476;10.986;2023-11-19T08:31:16;98075.31;;;11.27;100.00
12879;BME280;20617;49.476;10.986;2023-11-19T08:33:21;98081.38;;;11.28;100.00
12879;BME280;20617;49.476;10.986;2023-11-19T08:35:26;98088.28;;;11.29;100.00
12879;BME280;20617;49.476;10.986;2023-11-19T08:37:34;98086.44;;;11.31;100.00
12879;BME280;20617;49.476;10.986;2023-11-19T08:39:40;98085.44;;;11.33;100.00
12879;BME280;20617;49.476;10.986;2023-11-19T08:41:45;98089.91;;;11.31;100.00
12879;BME280;20617;49.476;10.986;2023-11-19T08:43:50;98091.84;;;11.45;100.00
12879;BME280;20617;49.476;10.986;2023-11-19T08:45:56;98097.00;;;11.47;100.00
12879;BME280;20617;49.476;10.986;2023-11-19T08:48:01;98092.31;;;11.53;100.00
12879;BME280;20617;49.476;10.986;2023-11-19T08:50:06;98094.78;;;11.56;100.00
12879;BME280;20617;49.476;10.986;2023-11-19T08:52:13;98079.66;;;11.63;100.00
12879;BME280;20617;49.476;10.986;2023-11-19T08:54:22;98077.84;;;11.65;100.00
12879;BME280;20617;49.476;10.986;2023-11-19T08:56:27;98079.22;;;11.72;100.00
12879;BME280;20617;49.476;10.986;2023-11-19T08:58:35;98085.13;;;11.76;100.00
12879;BME280;20617;49.476;10.986;2023-11-19T09:00:40;98082.13;;;11.84;100.00
12879;BME280;20617;49.476;10.986;2023-11-19T09:02:45;98075.56;;;11.94;100.00
12879;BME280;20617;49.476;10.986;2023-11-19T09:04:50;98066.50;;;12.01;100.00
12879;BME280;20617;49.476;10.986;2023-11-19T09:06:57;98067.91;;;12.08;100.00
12879;BME280;20617;49.476;10.986;2023-11-19T09:09:03;98066.63;;;12.15;100.00
12879;BME280;20617;49.476;10.986;2023-11-19T09:11:11;98058.44;;;12.23;100.00
12879;BME280;20617;49.476;10.986;2023-11-19T09:13:16;98067.53;;;12.32;100.00
12879;BME280;20617;49.476;10.986;2023-11-19T09:15:21;98076.16;;;12.34;100.00
12879;BME280;20617;49.476;10.986;2023-11-19T09:17:26;98083.09;;;12.33;100.00
12879;BME280;20617;49.476;10.986;2023-11-19T09:19:32;98083.88;;;12.35;100.00
12879;BME280;20617;49.476;10.986;2023-11-19T09:21:37;98086.25;;;12.40;100.00
12879;BME280;20617;49.476;10.986;2023-11-19T09:23:42;98069.75;;;12.39;100.00
12879;BME280;20617;49.476;10.986;2023-11-19T09:25:49;98081.94;;;12.39;100.00
12879;BME280;20617;49.476;10.986;2023-11-19T09:27:57;98075.81;;;12.40;100.00
12879;BME280;20617;49.476;10.986;2023-11-19T09:29:59;98080.22;;;12.39;100.00
12879;BME280;20617;49.476;10.986;2023-11-19T09:32:06;98085.09;;;12.45;100.00
12879;BME280;20617;49.476;10.986;2023-11-19T09:34:09;98093.16;;;12.41;100.00
12879;BME280;20617;49.476;10.986;2023-11-19T09:36:15;98084.72;;;12.36;100.00
12879;BME280;20617;49.476;10.986;2023-11-19T09:38:21;98084.13;;;12.31;100.00
12879;BME280;20617;49.476;10.986;2023-11-19T09:40:26;98093.03;;;12.27;100.00
12879;BME280;20617;49.476;10.986;2023-11-19T09:42:40;98093.03;;;12.27;100.00
12879;BME280;20617;49.476;10.986;2023-11-19T09:44:51;98091.34;;;12.26;100.00
12879;BME280;20617;49.476;10.986;2023-11-19T09:46:57;98086.75;;;12.31;100.00
12879;BME280;20617;49.476;10.986;2023-11-19T09:49:04;98086.91;;;12.28;100.00
12879;BME280;20617;49.476;10.986;2023-11-19T09:51:11;98078.97;;;12.29;100.00
12879;BME280;20617;49.476;10.986;2023-11-19T09:53:16;98081.03;;;12.40;100.00
12879;BME280;20617;49.476;10.986;2023-11-19T09:55:22;98080.22;;;12.39;100.00
12879;BME280;20617;49.476;10.986;2023-11-19T09:57:27;98082.72;;;12.41;100.00
12879;BME280;20617;49.476;10.986;2023-11-19T09:59:36;98083.50;;;12.43;100.00
12879;BME280;20617;49.476;10.986;2023-11-19T10:01:45;98081.22;;;12.53;100.00
12879;BME280;20617;49.476;10.986;2023-11-19T10:03:55;98071.91;;;12.64;100.00
12879;BME280;20617;49.476;10.986;2023-11-19T10:05:58;98061.47;;;12.64;100.00
12879;BME280;20617;49.476;10.986;2023-11-19T10:08:04;98060.28;;;12.70;100.00
12879;BME280;20617;49.476;10.986;2023-11-19T10:10:10;98050.34;;;12.77;100.00
12879;BME280;20617;49.476;10.986;2023-11-19T10:12:17;98043.28;;;12.79;100.00
12879;BME280;20617;49.476;10.986;2023-11-19T10:14:23;98042.03;;;12.86;100.00
12879;BME280;20617;49.476;10.986;2023-11-19T10:16:29;98041.41;;;12.97;100.00
12879;BME280;20617;49.476;10.986;2023-11-19T10:18:43;98026.94;;;13.07;100.00
12879;BME280;20617;49.476;10.986;2023-11-19T10:20:49;98025.75;;;12.97;100.00
12879;BME280;20617;49.476;10.986;2023-11-19T10:22:55;98024.66;;;13.01;100.00
12879;BME280;20617;49.476;10.986;2023-11-19T10:25:00;98031.91;;;12.96;100.00
12879;BME280;20617;49.476;10.986;2023-11-19T10:27:06;98023.91;;;12.99;100.00
12879;BME280;20617;49.476;10.986;2023-11-19T10:29:13;98029.06;;;13.00;100.00
12879;BME280;20617;49.476;10.986;2023-11-19T10:31:19;98027.69;;;12.93;100.00
12879;BME280;20617;49.476;10.986;2023-11-19T10:33:29;98032.06;;;12.93;100.00
12879;BME280;20617;49.476;10.986;2023-11-19T10:35:36;98034.59;;;12.94;100.00
12879;BME280;20617;49.476;10.986;2023-11-19T10:37:42;98036.88;;;12.84;100.00
12879;BME280;20617;49.476;10.986;2023-11-19T10:39:53;98052.72;;;12.65;100.00
12879;BME280;20617;49.476;10.986;2023-11-19T10:42:15;98073.16;;;12.57;100.00
12879;BME280;20617;49.476;10.986;2023-11-19T10:44:41;98071.63;;;12.53;100.00
12879;BME280;20617;49.476;10.986;2023-11-19T10:46:48;98070.28;;;12.62;100.00
12879;BME280;20617;49.476;10.986;2023-11-19T10:48:53;98070.13;;;12.65;100.00
12879;BME280;20617;49.476;10.986;2023-11-19T10:51:04;98061.06;;;12.72;100.00
12879;BME280;20617;49.476;10.986;2023-11-19T10:53:10;98054.47;;;12.65;100.00
12879;BME280;20617;49.476;10.986;2023-11-19T10:55:21;98057.41;;;12.59;100.00